Agadir, Morocco

1:48 PM WEST on September 21, 2014 (GMT +0100)
Al-Massira | Change Station
CLOSE
Current Station
Airport
Location: Agadir Al Massira,
Elevation: 243 ft
Nearby Weather Stations

Elev 243 ft 30.33 °N, 9.40 °W | Updated 18 minutes ago

Mostly Cloudy
Mostly Cloudy
75 °F
Feels Like 75 °F
N
14
Wind Variable Wind from East

Today
High -- | Low -- °F
--% Chance of Precip.
Yesterday
High -- | Low -- °F
Precip. -- in
7:25 AM 7:36 PM
Waning Crescent, 7% visible
Pressure 30.04 in
Visibility 6.2 miles
Clouds Few 3000 ft
Scattered Clouds 10000 ft
Mostly Cloudy 20000 ft
Dew Point 66 °F
Humidity 73%
Rainfall 0.00 in
Snow Depth Not available.
UV 6 out of 12
Pollen Not available.
Air Quality Not available.
Flu Activity Not available.
METAR GMAD 211230Z 08012KT 9999 FEW030CB SCT100 BKN200 24/19 Q1017 NOSIG

More Conditions Fewer Conditions

Pressure 30.04 in
Visibility 6.2 miles
Clouds Few 3000 ft
Scattered Clouds 10000 ft
Mostly Cloudy 20000 ft
Dew Point 66 °F
Humidity 73%
Rainfall 0.00 in
Snow Depth Not available.
UV 6 out of 12
Pollen Not available.
Air Quality Not available.
Flu Activity Not available.
METAR GMAD 211230Z 08012KT 9999 FEW030CB SCT100 BKN200 24/19 Q1017 NOSIG

More Conditions Fewer Conditions

10-Day Weather Forecast

Almanac

Astronomy

Sep. 21, 2014 Rise Set
Actual Time 7:25 AM WEST 7:36 PM WEST
Civil Twilight 7:01 AM WEST 8:00 PM WEST
Nautical Twilight 6:33 AM WEST 8:28 PM WEST
Astronomical Twilight 6:05 AM WEST 8:56 PM WEST
Moon 4:56 AM WEST 5:58 PM WEST
Length of Visible Light 12h 58m
Length of Day
12h 10m
Tomorrow will be 1m 50s shorter.
Waning Crescent, 7% of the Moon is Illuminated
Today
Waning Crescent
Sep 24
New
Oct 1
First Quarter
Oct 8
Full
Oct 15
Last Quarter

Yesterday's Extremes

Country Highs Country Lows

Community

WunderPhotos

Upload Photos

1,755,127 photos uploaded!

Nearby

Snow Depth

Not available.

Earthquake Activity

City Distance Mag. Time & Date
No recent earthquake activity has been reported nearby.
Minimum magnitude displayed is 2.5.

Coastal Water Temperatures

Place Temperature
No Stations Reporting

Nearby Weather Stations